sensor_id;sensor_type;location;lat;lon;timestamp;P1;durP1;ratioP1;P2;durP2;ratioP2
37907;SDS011;23740;51.550;6.846;2022-12-18T00:01:36;199.23;;;185.32;;
37907;SDS011;23740;51.550;6.846;2022-12-18T00:04:03;196.30;;;182.80;;
37907;SDS011;23740;51.550;6.846;2022-12-18T00:06:30;200.50;;;187.05;;
37907;SDS011;23740;51.550;6.846;2022-12-18T00:08:57;196.10;;;183.05;;
37907;SDS011;23740;51.550;6.846;2022-12-18T00:11:25;195.43;;;182.07;;
37907;SDS011;23740;51.550;6.846;2022-12-18T00:13:52;194.23;;;181.00;;
37907;SDS011;23740;51.550;6.846;2022-12-18T00:16:19;195.70;;;182.40;;
37907;SDS011;23740;51.550;6.846;2022-12-18T00:18:46;192.30;;;178.88;;
37907;SDS011;23740;51.550;6.846;2022-12-18T00:21:15;192.63;;;178.95;;
37907;SDS011;23740;51.550;6.846;2022-12-18T00:23:41;194.27;;;180.68;;
37907;SDS011;23740;51.550;6.846;2022-12-18T00:26:10;190.48;;;177.10;;
37907;SDS011;23740;51.550;6.846;2022-12-18T00:28:40;192.07;;;179.02;;
37907;SDS011;23740;51.550;6.846;2022-12-18T00:31:11;193.68;;;180.43;;
37907;SDS011;23740;51.550;6.846;2022-12-18T00:33:38;187.05;;;174.07;;
37907;SDS011;23740;51.550;6.846;2022-12-18T00:36:13;186.02;;;173.13;;
37907;SDS011;23740;51.550;6.846;2022-12-18T00:38:40;186.20;;;173.40;;
37907;SDS011;23740;51.550;6.846;2022-12-18T00:41:06;183.48;;;170.88;;
37907;SDS011;23740;51.550;6.846;2022-12-18T00:43:35;184.63;;;172.10;;
37907;SDS011;23740;51.550;6.846;2022-12-18T00:46:01;180.48;;;167.80;;
37907;SDS011;23740;51.550;6.846;2022-12-18T00:48:26;181.65;;;168.95;;
37907;SDS011;23740;51.550;6.846;2022-12-18T00:50:52;182.50;;;169.73;;
37907;SDS011;23740;51.550;6.846;2022-12-18T00:53:17;182.88;;;169.77;;
37907;SDS011;23740;51.550;6.846;2022-12-18T00:55:43;181.32;;;168.73;;
37907;SDS011;23740;51.550;6.846;2022-12-18T00:58:10;179.63;;;166.88;;
37907;SDS011;23740;51.550;6.846;2022-12-18T01:00:35;178.35;;;165.52;;
37907;SDS011;23740;51.550;6.846;2022-12-18T01:03:01;176.80;;;164.40;;
37907;SDS011;23740;51.550;6.846;2022-12-18T01:05:26;175.73;;;163.27;;
37907;SDS011;23740;51.550;6.846;2022-12-18T01:07:52;176.00;;;163.35;;
37907;SDS011;23740;51.550;6.846;2022-12-18T01:10:17;173.45;;;161.30;;
37907;SDS011;23740;51.550;6.846;2022-12-18T01:12:42;177.00;;;164.27;;
37907;SDS011;23740;51.550;6.846;2022-12-18T01:15:09;173.02;;;160.73;;
37907;SDS011;23740;51.550;6.846;2022-12-18T01:17:35;173.10;;;161.07;;
37907;SDS011;23740;51.550;6.846;2022-12-18T01:20:00;175.85;;;163.48;;
37907;SDS011;23740;51.550;6.846;2022-12-18T01:22:25;175.98;;;163.45;;
37907;SDS011;23740;51.550;6.846;2022-12-18T01:24:51;173.75;;;161.57;;
37907;SDS011;23740;51.550;6.846;2022-12-18T01:27:16;173.23;;;160.90;;
37907;SDS011;23740;51.550;6.846;2022-12-18T01:29:41;171.93;;;159.60;;
37907;SDS011;23740;51.550;6.846;2022-12-18T01:32:07;169.60;;;157.70;;
37907;SDS011;23740;51.550;6.846;2022-12-18T01:34:33;170.95;;;158.75;;
37907;SDS011;23740;51.550;6.846;2022-12-18T01:37:01;167.38;;;155.50;;
37907;SDS011;23740;51.550;6.846;2022-12-18T01:39:27;170.95;;;158.88;;
37907;SDS011;23740;51.550;6.846;2022-12-18T01:41:53;167.57;;;155.90;;
37907;SDS011;23740;51.550;6.846;2022-12-18T01:47:31;163.23;;;151.77;;
37907;SDS011;23740;51.550;6.846;2022-12-18T01:52:36;164.80;;;153.15;;
37907;SDS011;23740;51.550;6.846;2022-12-18T01:55:03;164.80;;;152.80;;
37907;SDS011;23740;51.550;6.846;2022-12-18T01:57:30;162.27;;;150.82;;
37907;SDS011;23740;51.550;6.846;2022-12-18T01:59:57;161.70;;;150.20;;
37907;SDS011;23740;51.550;6.846;2022-12-18T02:02:26;161.57;;;149.88;;
37907;SDS011;23740;51.550;6.846;2022-12-18T02:04:53;160.15;;;148.63;;
37907;SDS011;23740;51.550;6.846;2022-12-18T02:07:24;156.63;;;145.27;;
37907;SDS011;23740;51.550;6.846;2022-12-18T02:10:16;154.63;;;143.43;;
37907;SDS011;23740;51.550;6.846;2022-12-18T02:12:48;155.80;;;144.57;;
37907;SDS011;23740;51.550;6.846;2022-12-18T02:15:19;157.20;;;146.02;;
37907;SDS011;23740;51.550;6.846;2022-12-18T02:17:50;155.98;;;144.57;;
37907;SDS011;23740;51.550;6.846;2022-12-18T02:28:21;152.98;;;142.18;;
37907;SDS011;23740;51.550;6.846;2022-12-18T02:30:49;151.00;;;140.20;;
37907;SDS011;23740;51.550;6.846;2022-12-18T02:33:16;150.57;;;139.80;;
37907;SDS011;23740;51.550;6.846;2022-12-18T02:35:44;149.70;;;138.95;;
37907;SDS011;23740;51.550;6.846;2022-12-18T02:38:10;149.77;;;138.77;;
37907;SDS011;23740;51.550;6.846;2022-12-18T02:40:36;152.38;;;141.23;;
37907;SDS011;23740;51.550;6.846;2022-12-18T02:43:06;150.45;;;139.55;;
37907;SDS011;23740;51.550;6.846;2022-12-18T02:45:33;147.38;;;136.65;;
37907;SDS011;23740;51.550;6.846;2022-12-18T02:47:58;148.07;;;137.43;;
37907;SDS011;23740;51.550;6.846;2022-12-18T02:50:38;147.50;;;136.60;;
37907;SDS011;23740;51.550;6.846;2022-12-18T03:04:25;142.60;;;131.93;;
37907;SDS011;23740;51.550;6.846;2022-12-18T03:06:54;143.77;;;133.30;;
37907;SDS011;23740;51.550;6.846;2022-12-18T03:09:24;143.40;;;132.82;;
37907;SDS011;23740;51.550;6.846;2022-12-18T03:11:58;143.40;;;132.82;;
37907;SDS011;23740;51.550;6.846;2022-12-18T03:14:50;142.35;;;132.15;;
37907;SDS011;23740;51.550;6.846;2022-12-18T03:17:37;138.90;;;128.57;;
37907;SDS011;23740;51.550;6.846;2022-12-18T03:20:10;138.75;;;128.55;;
37907;SDS011;23740;51.550;6.846;2022-12-18T03:22:38;135.75;;;125.80;;
37907;SDS011;23740;51.550;6.846;2022-12-18T03:25:06;138.82;;;128.85;;
37907;SDS011;23740;51.550;6.846;2022-12-18T03:27:33;138.65;;;128.63;;
37907;SDS011;23740;51.550;6.846;2022-12-18T03:30:06;135.43;;;125.47;;
37907;SDS011;23740;51.550;6.846;2022-12-18T03:32:36;135.13;;;125.32;;
37907;SDS011;23740;51.550;6.846;2022-12-18T03:35:07;135.07;;;125.13;;
37907;SDS011;23740;51.550;6.846;2022-12-18T03:37:33;135.30;;;125.28;;
37907;SDS011;23740;51.550;6.846;2022-12-18T03:40:01;132.88;;;123.13;;
37907;SDS011;23740;51.550;6.846;2022-12-18T03:42:40;133.90;;;124.28;;
37907;SDS011;23740;51.550;6.846;2022-12-18T03:50:48;129.07;;;119.47;;
37907;SDS011;23740;51.550;6.846;2022-12-18T03:56:02;126.40;;;117.13;;
37907;SDS011;23740;51.550;6.846;2022-12-18T03:58:29;124.80;;;115.53;;
37907;SDS011;23740;51.550;6.846;2022-12-18T04:00:58;123.53;;;114.53;;
37907;SDS011;23740;51.550;6.846;2022-12-18T04:03:25;126.22;;;116.85;;
37907;SDS011;23740;51.550;6.846;2022-12-18T04:05:52;124.72;;;115.60;;
37907;SDS011;23740;51.550;6.846;2022-12-18T04:08:19;124.15;;;115.05;;
37907;SDS011;23740;51.550;6.846;2022-12-18T04:10:45;123.97;;;114.70;;
37907;SDS011;23740;51.550;6.846;2022-12-18T04:13:11;119.78;;;110.85;;
37907;SDS011;23740;51.550;6.846;2022-12-18T04:15:36;123.15;;;114.28;;
37907;SDS011;23740;51.550;6.846;2022-12-18T04:18:02;120.25;;;111.32;;
37907;SDS011;23740;51.550;6.846;2022-12-18T04:20:28;123.05;;;113.95;;
37907;SDS011;23740;51.550;6.846;2022-12-18T04:22:56;120.05;;;111.03;;
37907;SDS011;23740;51.550;6.846;2022-12-18T04:25:21;118.10;;;109.28;;
37907;SDS011;23740;51.550;6.846;2022-12-18T04:27:47;117.07;;;108.68;;
37907;SDS011;23740;51.550;6.846;2022-12-18T04:30:12;118.25;;;109.65;;
37907;SDS011;23740;51.550;6.846;2022-12-18T04:32:37;116.10;;;107.55;;
37907;SDS011;23740;51.550;6.846;2022-12-18T04:35:03;115.15;;;106.95;;
37907;SDS011;23740;51.550;6.846;2022-12-18T04:37:31;114.03;;;105.65;;
37907;SDS011;23740;51.550;6.846;2022-12-18T04:39:57;114.18;;;105.88;;
37907;SDS011;23740;51.550;6.846;2022-12-18T04:42:22;115.20;;;106.85;;
37907;SDS011;23740;51.550;6.846;2022-12-18T04:44:47;112.28;;;104.15;;
37907;SDS011;23740;51.550;6.846;2022-12-18T04:47:13;112.28;;;104.10;;
37907;SDS011;23740;51.550;6.846;2022-12-18T04:49:38;113.18;;;104.75;;
37907;SDS011;23740;51.550;6.846;2022-12-18T04:52:03;111.80;;;103.53;;
37907;SDS011;23740;51.550;6.846;2022-12-18T04:54:29;111.03;;;103.00;;
37907;SDS011;23740;51.550;6.846;2022-12-18T04:56:54;109.95;;;101.85;;
37907;SDS011;23740;51.550;6.846;2022-12-18T04:59:19;108.38;;;100.30;;
37907;SDS011;23740;51.550;6.846;2022-12-18T05:01:45;109.00;;;101.03;;
37907;SDS011;23740;51.550;6.846;2022-12-18T05:04:10;108.15;;;100.38;;
37907;SDS011;23740;51.550;6.846;2022-12-18T05:06:36;106.10;;;98.40;;
37907;SDS011;23740;51.550;6.846;2022-12-18T05:09:01;104.75;;;97.13;;
37907;SDS011;23740;51.550;6.846;2022-12-18T05:11:27;105.53;;;97.90;;
37907;SDS011;23740;51.550;6.846;2022-12-18T05:13:52;107.63;;;99.78;;
37907;SDS011;23740;51.550;6.846;2022-12-18T05:16:17;106.82;;;99.13;;
37907;SDS011;23740;51.550;6.846;2022-12-18T05:18:43;104.32;;;96.72;;
37907;SDS011;23740;51.550;6.846;2022-12-18T05:21:08;106.07;;;98.22;;
37907;SDS011;23740;51.550;6.846;2022-12-18T05:23:34;105.95;;;98.10;;
37907;SDS011;23740;51.550;6.846;2022-12-18T05:26:01;102.88;;;95.32;;
37907;SDS011;23740;51.550;6.846;2022-12-18T05:28:28;103.93;;;96.07;;
37907;SDS011;23740;51.550;6.846;2022-12-18T05:30:57;102.38;;;94.82;;
37907;SDS011;23740;51.550;6.846;2022-12-18T05:33:25;100.95;;;93.55;;
37907;SDS011;23740;51.550;6.846;2022-12-18T05:35:53;103.20;;;95.65;;
37907;SDS011;23740;51.550;6.846;2022-12-18T05:38:22;100.80;;;93.38;;
37907;SDS011;23740;51.550;6.846;2022-12-18T05:40:49;100.45;;;93.07;;
37907;SDS011;23740;51.550;6.846;2022-12-18T05:43:15;100.25;;;93.05;;
37907;SDS011;23740;51.550;6.846;2022-12-18T05:45:40;100.13;;;92.82;;
37907;SDS011;23740;51.550;6.846;2022-12-18T05:48:06;99.18;;;91.85;;
37907;SDS011;23740;51.550;6.846;2022-12-18T05:50:39;98.72;;;91.45;;
37907;SDS011;23740;51.550;6.846;2022-12-18T05:53:07;98.05;;;90.90;;
37907;SDS011;23740;51.550;6.846;2022-12-18T05:55:34;96.78;;;89.88;;
37907;SDS011;23740;51.550;6.846;2022-12-18T05:58:00;97.72;;;90.70;;
37907;SDS011;23740;51.550;6.846;2022-12-18T06:00:26;97.15;;;89.82;;
37907;SDS011;23740;51.550;6.846;2022-12-18T06:02:51;93.97;;;87.03;;
37907;SDS011;23740;51.550;6.846;2022-12-18T06:05:16;94.95;;;87.82;;
37907;SDS011;23740;51.550;6.846;2022-12-18T06:07:42;94.68;;;87.95;;
37907;SDS011;23740;51.550;6.846;2022-12-18T06:10:07;95.15;;;88.05;;
37907;SDS011;23740;51.550;6.846;2022-12-18T06:12:33;93.80;;;87.00;;
37907;SDS011;23740;51.550;6.846;2022-12-18T06:14:59;92.80;;;85.97;;
37907;SDS011;23740;51.550;6.846;2022-12-18T06:17:31;94.15;;;87.13;;
37907;SDS011;23740;51.550;6.846;2022-12-18T06:19:57;90.38;;;83.70;;
37907;SDS011;23740;51.550;6.846;2022-12-18T06:22:22;90.32;;;83.63;;
37907;SDS011;23740;51.550;6.846;2022-12-18T06:24:48;90.53;;;83.68;;
37907;SDS011;23740;51.550;6.846;2022-12-18T06:27:13;91.78;;;84.97;;
37907;SDS011;23740;51.550;6.846;2022-12-18T06:29:39;89.93;;;83.32;;
37907;SDS011;23740;51.550;6.846;2022-12-18T06:32:04;88.88;;;82.38;;
37907;SDS011;23740;51.550;6.846;2022-12-18T06:34:29;88.00;;;81.40;;
37907;SDS011;23740;51.550;6.846;2022-12-18T06:36:55;87.05;;;80.45;;
37907;SDS011;23740;51.550;6.846;2022-12-18T06:39:20;88.72;;;82.13;;
37907;SDS011;23740;51.550;6.846;2022-12-18T06:41:45;87.50;;;81.05;;
37907;SDS011;23740;51.550;6.846;2022-12-18T06:44:11;86.57;;;80.10;;
37907;SDS011;23740;51.550;6.846;2022-12-18T06:46:36;86.90;;;80.22;;
37907;SDS011;23740;51.550;6.846;2022-12-18T06:49:03;85.70;;;79.40;;
37907;SDS011;23740;51.550;6.846;2022-12-18T06:51:28;86.72;;;80.28;;
37907;SDS011;23740;51.550;6.846;2022-12-18T06:53:53;87.68;;;81.07;;
37907;SDS011;23740;51.550;6.846;2022-12-18T06:56:19;86.03;;;79.82;;
37907;SDS011;23740;51.550;6.846;2022-12-18T06:58:44;85.85;;;79.45;;
37907;SDS011;23740;51.550;6.846;2022-12-18T07:01:10;85.10;;;78.85;;
37907;SDS011;23740;51.550;6.846;2022-12-18T07:03:37;83.32;;;77.13;;
37907;SDS011;23740;51.550;6.846;2022-12-18T07:06:06;82.20;;;75.97;;
37907;SDS011;23740;51.550;6.846;2022-12-18T07:08:32;83.03;;;76.63;;
37907;SDS011;23740;51.550;6.846;2022-12-18T07:10:57;83.93;;;77.65;;
37907;SDS011;23740;51.550;6.846;2022-12-18T07:13:23;82.18;;;76.07;;
37907;SDS011;23740;51.550;6.846;2022-12-18T07:15:48;79.88;;;73.88;;
37907;SDS011;23740;51.550;6.846;2022-12-18T07:18:13;79.55;;;73.45;;
37907;SDS011;23740;51.550;6.846;2022-12-18T07:20:39;77.60;;;71.70;;
37907;SDS011;23740;51.550;6.846;2022-12-18T07:23:04;76.10;;;70.50;;
37907;SDS011;23740;51.550;6.846;2022-12-18T07:25:30;77.90;;;72.10;;
37907;SDS011;23740;51.550;6.846;2022-12-18T07:27:59;78.97;;;73.07;;
37907;SDS011;23740;51.550;6.846;2022-12-18T07:30:24;76.50;;;70.80;;
37907;SDS011;23740;51.550;6.846;2022-12-18T07:32:50;76.18;;;70.38;;
37907;SDS011;23740;51.550;6.846;2022-12-18T07:35:15;77.32;;;71.43;;
37907;SDS011;23740;51.550;6.846;2022-12-18T07:37:41;74.10;;;68.28;;
37907;SDS011;23740;51.550;6.846;2022-12-18T07:40:07;73.72;;;68.35;;
37907;SDS011;23740;51.550;6.846;2022-12-18T07:42:33;73.15;;;67.75;;
37907;SDS011;23740;51.550;6.846;2022-12-18T07:44:59;74.45;;;68.95;;
37907;SDS011;23740;51.550;6.846;2022-12-18T07:47:25;74.35;;;68.95;;
37907;SDS011;23740;51.550;6.846;2022-12-18T07:49:51;72.07;;;66.50;;
37907;SDS011;23740;51.550;6.846;2022-12-18T07:52:16;73.28;;;67.93;;
37907;SDS011;23740;51.550;6.846;2022-12-18T07:54:42;73.38;;;67.78;;
37907;SDS011;23740;51.550;6.846;2022-12-18T07:57:07;73.50;;;67.85;;
37907;SDS011;23740;51.550;6.846;2022-12-18T07:59:33;70.60;;;65.35;;
37907;SDS011;23740;51.550;6.846;2022-12-18T08:01:59;70.88;;;65.65;;
37907;SDS011;23740;51.550;6.846;2022-12-18T08:04:25;70.32;;;65.07;;
37907;SDS011;23740;51.550;6.846;2022-12-18T08:06:50;68.97;;;63.83;;
37907;SDS011;23740;51.550;6.846;2022-12-18T08:09:16;68.63;;;63.63;;
37907;SDS011;23740;51.550;6.846;2022-12-18T08:11:41;68.07;;;62.88;;
37907;SDS011;23740;51.550;6.846;2022-12-18T08:14:07;67.38;;;62.38;;
37907;SDS011;23740;51.550;6.846;2022-12-18T08:16:32;67.53;;;62.42;;
37907;SDS011;23740;51.550;6.846;2022-12-18T08:18:57;66.60;;;61.60;;
37907;SDS011;23740;51.550;6.846;2022-12-18T08:21:24;66.63;;;61.70;;
37907;SDS011;23740;51.550;6.846;2022-12-18T08:23:52;64.47;;;59.47;;
37907;SDS011;23740;51.550;6.846;2022-12-18T08:26:18;61.88;;;57.28;;
37907;SDS011;23740;51.550;6.846;2022-12-18T08:28:44;60.33;;;55.90;;
37907;SDS011;23740;51.550;6.846;2022-12-18T08:31:09;58.47;;;53.90;;
37907;SDS011;23740;51.550;6.846;2022-12-18T08:33:35;57.72;;;53.15;;
37907;SDS011;23740;51.550;6.846;2022-12-18T08:36:05;57.95;;;53.53;;
37907;SDS011;23740;51.550;6.846;2022-12-18T08:40:59;55.45;;;51.15;;
37907;SDS011;23740;51.550;6.846;2022-12-18T08:43:25;53.85;;;49.65;;
37907;SDS011;23740;51.550;6.846;2022-12-18T08:46:09;54.00;;;50.00;;
37907;SDS011;23740;51.550;6.846;2022-12-18T08:48:34;53.53;;;49.42;;
37907;SDS011;23740;51.550;6.846;2022-12-18T08:51:00;52.08;;;47.95;;
37907;SDS011;23740;51.550;6.846;2022-12-18T08:53:26;52.35;;;48.35;;
37907;SDS011;23740;51.550;6.846;2022-12-18T08:55:52;51.95;;;47.95;;
37907;SDS011;23740;51.550;6.846;2022-12-18T08:58:17;52.03;;;47.60;;
37907;SDS011;23740;51.550;6.846;2022-12-18T09:00:43;53.17;;;48.47;;
37907;SDS011;23740;51.550;6.846;2022-12-18T09:03:18;54.38;;;50.00;;
37907;SDS011;23740;51.550;6.846;2022-12-18T09:05:46;53.88;;;48.45;;
37907;SDS011;23740;51.550;6.846;2022-12-18T09:08:12;51.53;;;47.03;;
37907;SDS011;23740;51.550;6.846;2022-12-18T09:10:47;49.85;;;45.88;;
37907;SDS011;23740;51.550;6.846;2022-12-18T09:13:14;51.80;;;47.28;;
37907;SDS011;23740;51.550;6.846;2022-12-18T09:15:43;51.20;;;47.08;;
37907;SDS011;23740;51.550;6.846;2022-12-18T09:18:13;50.65;;;46.13;;
37907;SDS011;23740;51.550;6.846;2022-12-18T09:20:39;51.92;;;46.72;;
37907;SDS011;23740;51.550;6.846;2022-12-18T09:23:05;50.20;;;46.22;;
37907;SDS011;23740;51.550;6.846;2022-12-18T09:25:31;49.92;;;45.45;;
37907;SDS011;23740;51.550;6.846;2022-12-18T09:28:01;48.17;;;44.28;;
37907;SDS011;23740;51.550;6.846;2022-12-18T09:30:27;49.40;;;45.30;;
37907;SDS011;23740;51.550;6.846;2022-12-18T09:32:53;52.03;;;46.85;;
37907;SDS011;23740;51.550;6.846;2022-12-18T09:35:18;31.05;;;28.08;;
37907;SDS011;23740;51.550;6.846;2022-12-18T09:37:43;23.00;;;20.45;;
37907;SDS011;23740;51.550;6.846;2022-12-18T09:40:13;18.00;;;15.02;;
37907;SDS011;23740;51.550;6.846;2022-12-18T09:42:39;14.27;;;12.88;;
37907;SDS011;23740;51.550;6.846;2022-12-18T09:45:07;18.70;;;12.13;;
37907;SDS011;23740;51.550;6.846;2022-12-18T09:47:37;15.30;;;9.68;;
37907;SDS011;23740;51.550;6.846;2022-12-18T09:50:05;17.48;;;8.73;;
37907;SDS011;23740;51.550;6.846;2022-12-18T09:52:59;13.02;;;8.98;;
37907;SDS011;23740;51.550;6.846;2022-12-18T09:55:31;13.02;;;8.63;;
37907;SDS011;23740;51.550;6.846;2022-12-18T09:58:00;15.48;;;8.10;;
37907;SDS011;23740;51.550;6.846;2022-12-18T10:00:31;13.90;;;8.75;;
37907;SDS011;23740;51.550;6.846;2022-12-18T10:02:59;15.98;;;9.23;;
37907;SDS011;23740;51.550;6.846;2022-12-18T10:14:34;19.30;;;8.60;;
37907;SDS011;23740;51.550;6.846;2022-12-18T10:19:59;13.27;;;7.80;;
37907;SDS011;23740;51.550;6.846;2022-12-18T10:27:25;15.23;;;7.45;;
37907;SDS011;23740;51.550;6.846;2022-12-18T10:29:52;9.85;;;7.47;;
37907;SDS011;23740;51.550;6.846;2022-12-18T10:32:25;10.65;;;7.13;;
37907;SDS011;23740;51.550;6.846;2022-12-18T10:34:54;17.42;;;8.10;;
37907;SDS011;23740;51.550;6.846;2022-12-18T10:37:23;9.90;;;7.32;;
37907;SDS011;23740;51.550;6.846;2022-12-18T10:42:35;10.48;;;7.00;;
37907;SDS011;23740;51.550;6.846;2022-12-18T10:45:08;8.43;;;6.40;;
37907;SDS011;23740;51.550;6.846;2022-12-18T10:47:44;11.88;;;7.13;;
37907;SDS011;23740;51.550;6.846;2022-12-18T10:52:59;15.18;;;7.65;;
37907;SDS011;23740;51.550;6.846;2022-12-18T10:55:35;11.82;;;7.40;;
37907;SDS011;23740;51.550;6.846;2022-12-18T11:01:05;9.07;;;6.80;;
37907;SDS011;23740;51.550;6.846;2022-12-18T11:06:04;9.98;;;6.85;;
37907;SDS011;23740;51.550;6.846;2022-12-18T11:08:35;8.40;;;6.57;;
37907;SDS011;23740;51.550;6.846;2022-12-18T11:11:00;12.38;;;7.13;;
37907;SDS011;23740;51.550;6.846;2022-12-18T11:13:27;10.60;;;6.93;;
37907;SDS011;23740;51.550;6.846;2022-12-18T11:15:53;7.95;;;6.53;;
37907;SDS011;23740;51.550;6.846;2022-12-18T11:20:51;8.20;;;6.47;;
37907;SDS011;23740;51.550;6.846;2022-12-18T11:23:18;9.77;;;7.05;;
37907;SDS011;23740;51.550;6.846;2022-12-18T11:25:50;8.68;;;7.13;;
37907;SDS011;23740;51.550;6.846;2022-12-18T11:28:38;8.93;;;6.85;;
37907;SDS011;23740;51.550;6.846;2022-12-18T11:33:58;8.98;;;6.32;;
37907;SDS011;23740;51.550;6.846;2022-12-18T11:36:28;12.35;;;6.68;;
37907;SDS011;23740;51.550;6.846;2022-12-18T11:38:56;9.18;;;7.28;;
37907;SDS011;23740;51.550;6.846;2022-12-18T11:41:29;8.90;;;6.65;;
37907;SDS011;23740;51.550;6.846;2022-12-18T11:44:18;9.32;;;6.75;;
37907;SDS011;23740;51.550;6.846;2022-12-18T11:46:51;11.07;;;6.70;;
37907;SDS011;23740;51.550;6.846;2022-12-18T11:49:22;10.70;;;6.22;;
37907;SDS011;23740;51.550;6.846;2022-12-18T11:54:17;9.57;;;6.13;;
37907;SDS011;23740;51.550;6.846;2022-12-18T12:00:04;10.80;;;6.65;;
37907;SDS011;23740;51.550;6.846;2022-12-18T12:03:03;8.38;;;6.03;;
37907;SDS011;23740;51.550;6.846;2022-12-18T12:08:09;8.13;;;6.05;;
37907;SDS011;23740;51.550;6.846;2022-12-18T12:11:24;10.52;;;6.40;;
37907;SDS011;23740;51.550;6.846;2022-12-18T12:19:19;9.27;;;6.57;;
37907;SDS011;23740;51.550;6.846;2022-12-18T12:21:58;9.50;;;6.32;;
37907;SDS011;23740;51.550;6.846;2022-12-18T12:30:43;8.90;;;6.03;;
37907;SDS011;23740;51.550;6.846;2022-12-18T12:38:40;9.13;;;6.30;;
37907;SDS011;23740;51.550;6.846;2022-12-18T12:41:09;8.65;;;6.22;;
37907;SDS011;23740;51.550;6.846;2022-12-18T12:43:58;8.68;;;5.57;;
37907;SDS011;23740;51.550;6.846;2022-12-18T12:46:27;10.02;;;6.97;;
37907;SDS011;23740;51.550;6.846;2022-12-18T12:51:28;9.13;;;6.63;;
37907;SDS011;23740;51.550;6.846;2022-12-18T12:56:24;8.93;;;6.75;;
37907;SDS011;23740;51.550;6.846;2022-12-18T12:58:58;7.60;;;6.00;;
37907;SDS011;23740;51.550;6.846;2022-12-18T13:01:40;13.25;;;7.20;;
37907;SDS011;23740;51.550;6.846;2022-12-18T13:04:22;8.30;;;6.68;;
37907;SDS011;23740;51.550;6.846;2022-12-18T13:07:04;9.63;;;6.93;;
37907;SDS011;23740;51.550;6.846;2022-12-18T13:09:35;9.00;;;6.57;;
37907;SDS011;23740;51.550;6.846;2022-12-18T13:12:50;8.65;;;6.78;;
37907;SDS011;23740;51.550;6.846;2022-12-18T13:20:42;7.43;;;5.82;;
37907;SDS011;23740;51.550;6.846;2022-12-18T13:36:43;9.50;;;6.47;;
37907;SDS011;23740;51.550;6.846;2022-12-18T13:41:43;8.57;;;5.97;;
37907;SDS011;23740;51.550;6.846;2022-12-18T13:44:31;7.32;;;5.55;;
37907;SDS011;23740;51.550;6.846;2022-12-18T13:47:00;7.55;;;5.60;;
37907;SDS011;23740;51.550;6.846;2022-12-18T13:49:37;7.00;;;5.78;;
37907;SDS011;23740;51.550;6.846;2022-12-18T13:54:42;11.50;;;6.05;;
37907;SDS011;23740;51.550;6.846;2022-12-18T14:02:44;8.73;;;5.70;;
37907;SDS011;23740;51.550;6.846;2022-12-18T14:05:23;7.68;;;5.68;;
37907;SDS011;23740;51.550;6.846;2022-12-18T14:07:49;8.38;;;6.20;;
37907;SDS011;23740;51.550;6.846;2022-12-18T14:10:15;9.40;;;6.22;;
37907;SDS011;23740;51.550;6.846;2022-12-18T14:12:44;8.23;;;6.30;;
37907;SDS011;23740;51.550;6.846;2022-12-18T14:20:22;7.28;;;5.38;;
37907;SDS011;23740;51.550;6.846;2022-12-18T14:22:49;7.75;;;5.68;;
37907;SDS011;23740;51.550;6.846;2022-12-18T14:27:46;6.22;;;5.28;;
37907;SDS011;23740;51.550;6.846;2022-12-18T14:30:30;7.75;;;5.55;;
37907;SDS011;23740;51.550;6.846;2022-12-18T14:33:30;6.47;;;5.03;;
37907;SDS011;23740;51.550;6.846;2022-12-18T14:41:03;8.05;;;5.05;;
37907;SDS011;23740;51.550;6.846;2022-12-18T14:43:36;7.60;;;5.25;;
37907;SDS011;23740;51.550;6.846;2022-12-18T14:46:03;7.45;;;5.40;;
37907;SDS011;23740;51.550;6.846;2022-12-18T14:53:42;7.35;;;5.63;;
37907;SDS011;23740;51.550;6.846;2022-12-18T14:56:12;6.32;;;5.20;;
37907;SDS011;23740;51.550;6.846;2022-12-18T15:01:34;8.75;;;5.22;;
37907;SDS011;23740;51.550;6.846;2022-12-18T15:04:00;7.03;;;5.05;;
37907;SDS011;23740;51.550;6.846;2022-12-18T15:06:30;7.05;;;5.20;;
37907;SDS011;23740;51.550;6.846;2022-12-18T15:09:00;6.93;;;5.07;;
37907;SDS011;23740;51.550;6.846;2022-12-18T15:16:56;8.10;;;5.80;;
37907;SDS011;23740;51.550;6.846;2022-12-18T15:19:22;7.07;;;5.22;;
37907;SDS011;23740;51.550;6.846;2022-12-18T15:21:57;6.57;;;4.80;;
37907;SDS011;23740;51.550;6.846;2022-12-18T15:24:24;7.53;;;4.90;;
37907;SDS011;23740;51.550;6.846;2022-12-18T15:26:52;6.15;;;4.78;;
37907;SDS011;23740;51.550;6.846;2022-12-18T15:29:21;5.80;;;4.93;;
37907;SDS011;23740;51.550;6.846;2022-12-18T15:36:51;7.18;;;5.20;;
37907;SDS011;23740;51.550;6.846;2022-12-18T15:39:16;6.30;;;4.85;;
37907;SDS011;23740;51.550;6.846;2022-12-18T15:41:42;7.82;;;4.97;;
37907;SDS011;23740;51.550;6.846;2022-12-18T15:44:27;7.63;;;5.25;;
37907;SDS011;23740;51.550;6.846;2022-12-18T15:46:56;6.22;;;4.80;;
37907;SDS011;23740;51.550;6.846;2022-12-18T15:49:22;8.48;;;5.28;;
37907;SDS011;23740;51.550;6.846;2022-12-18T15:51:49;6.53;;;5.20;;
37907;SDS011;23740;51.550;6.846;2022-12-18T15:54:20;7.45;;;5.30;;
37907;SDS011;23740;51.550;6.846;2022-12-18T15:57:08;7.40;;;4.82;;
37907;SDS011;23740;51.550;6.846;2022-12-18T15:59:50;6.80;;;4.75;;
37907;SDS011;23740;51.550;6.846;2022-12-18T16:02:18;7.90;;;5.13;;
37907;SDS011;23740;51.550;6.846;2022-12-18T16:04:44;8.25;;;5.28;;
37907;SDS011;23740;51.550;6.846;2022-12-18T16:07:10;7.13;;;5.15;;
37907;SDS011;23740;51.550;6.846;2022-12-18T16:09:36;7.05;;;4.60;;
37907;SDS011;23740;51.550;6.846;2022-12-18T16:12:01;7.82;;;4.70;;
37907;SDS011;23740;51.550;6.846;2022-12-18T16:14:28;6.53;;;5.03;;
37907;SDS011;23740;51.550;6.846;2022-12-18T16:17:05;5.82;;;4.57;;
37907;SDS011;23740;51.550;6.846;2022-12-18T16:19:33;6.80;;;4.88;;
37907;SDS011;23740;51.550;6.846;2022-12-18T16:21:58;6.72;;;5.30;;
37907;SDS011;23740;51.550;6.846;2022-12-18T16:24:25;7.55;;;5.22;;
37907;SDS011;23740;51.550;6.846;2022-12-18T16:26:55;7.15;;;4.93;;
37907;SDS011;23740;51.550;6.846;2022-12-18T16:29:24;6.53;;;4.95;;
37907;SDS011;23740;51.550;6.846;2022-12-18T16:31:52;7.00;;;5.13;;
37907;SDS011;23740;51.550;6.846;2022-12-18T16:34:19;7.85;;;5.00;;
37907;SDS011;23740;51.550;6.846;2022-12-18T16:36:47;7.45;;;5.13;;
37907;SDS011;23740;51.550;6.846;2022-12-18T16:39:16;6.32;;;4.65;;
37907;SDS011;23740;51.550;6.846;2022-12-18T16:41:42;7.63;;;4.82;;
37907;SDS011;23740;51.550;6.846;2022-12-18T16:44:08;8.30;;;5.00;;
37907;SDS011;23740;51.550;6.846;2022-12-18T16:46:34;5.82;;;4.40;;
37907;SDS011;23740;51.550;6.846;2022-12-18T16:48:59;9.00;;;5.05;;
37907;SDS011;23740;51.550;6.846;2022-12-18T16:51:28;8.68;;;5.85;;
37907;SDS011;23740;51.550;6.846;2022-12-18T16:56:20;9.48;;;8.48;;
37907;SDS011;23740;51.550;6.846;2022-12-18T16:58:52;12.07;;;10.98;;
37907;SDS011;23740;51.550;6.846;2022-12-18T17:01:18;16.65;;;15.35;;
37907;SDS011;23740;51.550;6.846;2022-12-18T17:03:49;18.05;;;16.63;;
37907;SDS011;23740;51.550;6.846;2022-12-18T17:06:19;19.17;;;17.70;;
37907;SDS011;23740;51.550;6.846;2022-12-18T17:08:53;20.83;;;19.33;;
37907;SDS011;23740;51.550;6.846;2022-12-18T17:11:23;22.42;;;20.83;;
37907;SDS011;23740;51.550;6.846;2022-12-18T17:13:49;23.15;;;21.45;;